sensor_id;sensor_type;location;lat;lon;timestamp;temperature;humidity
34873;DHT22;21084;51.098;14.506;2023-05-10T00:01:33;11.20;47.00
34873;DHT22;21084;51.098;14.506;2023-05-10T00:04:01;11.20;46.80
34873;DHT22;21084;51.098;14.506;2023-05-10T00:06:29;11.20;46.80
34873;DHT22;21084;51.098;14.506;2023-05-10T00:08:58;11.30;46.70
34873;DHT22;21084;51.098;14.506;2023-05-10T00:11:27;11.30;46.50
34873;DHT22;21084;51.098;14.506;2023-05-10T00:13:56;11.30;46.70
34873;DHT22;21084;51.098;14.506;2023-05-10T00:16:24;11.20;46.70
34873;DHT22;21084;51.098;14.506;2023-05-10T00:18:52;11.30;46.50
34873;DHT22;21084;51.098;14.506;2023-05-10T00:21:20;11.30;46.30
34873;DHT22;21084;51.098;14.506;2023-05-10T00:23:48;11.40;46.20
34873;DHT22;21084;51.098;14.506;2023-05-10T00:26:17;11.40;46.10
34873;DHT22;21084;51.098;14.506;2023-05-10T00:28:46;11.40;46.20
34873;DHT22;21084;51.098;14.506;2023-05-10T00:31:14;11.40;46.10
34873;DHT22;21084;51.098;14.506;2023-05-10T00:33:42;11.30;46.40
34873;DHT22;21084;51.098;14.506;2023-05-10T00:36:10;11.30;46.40
34873;DHT22;21084;51.098;14.506;2023-05-10T00:38:39;11.20;46.40
34873;DHT22;21084;51.098;14.506;2023-05-10T00:41:07;11.30;46.70
34873;DHT22;21084;51.098;14.506;2023-05-10T00:43:35;11.20;46.70
34873;DHT22;21084;51.098;14.506;2023-05-10T00:46:05;11.20;46.70
34873;DHT22;21084;51.098;14.506;2023-05-10T00:48:34;11.20;46.60
34873;DHT22;21084;51.098;14.506;2023-05-10T00:51:03;11.20;47.00
34873;DHT22;21084;51.098;14.506;2023-05-10T00:53:31;11.20;46.80
34873;DHT22;21084;51.098;14.506;2023-05-10T00:56:00;11.30;46.80
34873;DHT22;21084;51.098;14.506;2023-05-10T00:58:28;11.20;47.00
34873;DHT22;21084;51.098;14.506;2023-05-10T01:00:57;11.10;47.10
34873;DHT22;21084;51.098;14.506;2023-05-10T01:03:27;11.10;47.30
34873;DHT22;21084;51.098;14.506;2023-05-10T01:05:56;11.10;47.40
34873;DHT22;21084;51.098;14.506;2023-05-10T01:08:24;11.20;47.30
34873;DHT22;21084;51.098;14.506;2023-05-10T01:10:52;11.20;47.30
34873;DHT22;21084;51.098;14.506;2023-05-10T01:13:25;11.20;47.40
34873;DHT22;21084;51.098;14.506;2023-05-10T01:15:57;11.20;47.40
34873;DHT22;21084;51.098;14.506;2023-05-10T01:18:28;11.20;47.30
34873;DHT22;21084;51.098;14.506;2023-05-10T01:20:59;11.20;47.40
34873;DHT22;21084;51.098;14.506;2023-05-10T01:23:35;11.20;47.60
34873;DHT22;21084;51.098;14.506;2023-05-10T01:31:30;11.10;48.10
34873;DHT22;21084;51.098;14.506;2023-05-10T01:34:05;11.10;48.00
34873;DHT22;21084;51.098;14.506;2023-05-10T01:36:35;11.00;48.20
34873;DHT22;21084;51.098;14.506;2023-05-10T01:39:08;11.10;48.20
34873;DHT22;21084;51.098;14.506;2023-05-10T01:41:39;11.10;48.30
34873;DHT22;21084;51.098;14.506;2023-05-10T01:44:11;11.00;48.20
34873;DHT22;21084;51.098;14.506;2023-05-10T01:46:41;11.00;48.50
34873;DHT22;21084;51.098;14.506;2023-05-10T01:49:13;10.90;48.70
34873;DHT22;21084;51.098;14.506;2023-05-10T01:51:44;10.90;48.70
34873;DHT22;21084;51.098;14.506;2023-05-10T01:54:13;11.00;48.40
34873;DHT22;21084;51.098;14.506;2023-05-10T01:56:41;11.00;48.40
34873;DHT22;21084;51.098;14.506;2023-05-10T01:59:12;11.00;48.70
34873;DHT22;21084;51.098;14.506;2023-05-10T02:01:41;10.90;48.70
34873;DHT22;21084;51.098;14.506;2023-05-10T02:04:12;11.00;48.60
34873;DHT22;21084;51.098;14.506;2023-05-10T02:06:42;11.00;48.70
34873;DHT22;21084;51.098;14.506;2023-05-10T02:09:11;11.00;49.10
34873;DHT22;21084;51.098;14.506;2023-05-10T02:11:41;10.90;48.70
34873;DHT22;21084;51.098;14.506;2023-05-10T02:14:10;10.80;49.00
34873;DHT22;21084;51.098;14.506;2023-05-10T02:16:39;10.80;49.10
34873;DHT22;21084;51.098;14.506;2023-05-10T02:19:08;10.80;49.20
34873;DHT22;21084;51.098;14.506;2023-05-10T02:21:38;10.80;49.20
34873;DHT22;21084;51.098;14.506;2023-05-10T02:24:07;10.70;49.30
34873;DHT22;21084;51.098;14.506;2023-05-10T02:26:36;10.70;49.40
34873;DHT22;21084;51.098;14.506;2023-05-10T02:29:06;10.70;49.60
34873;DHT22;21084;51.098;14.506;2023-05-10T02:31:34;10.70;49.70
34873;DHT22;21084;51.098;14.506;2023-05-10T02:34:03;10.60;49.70
34873;DHT22;21084;51.098;14.506;2023-05-10T02:36:32;10.60;50.00
34873;DHT22;21084;51.098;14.506;2023-05-10T02:39:02;10.60;49.80
34873;DHT22;21084;51.098;14.506;2023-05-10T02:41:31;10.60;50.00
34873;DHT22;21084;51.098;14.506;2023-05-10T02:44:00;10.60;49.90
34873;DHT22;21084;51.098;14.506;2023-05-10T02:46:29;10.60;49.90
34873;DHT22;21084;51.098;14.506;2023-05-10T02:48:58;10.70;49.80
34873;DHT22;21084;51.098;14.506;2023-05-10T02:51:28;10.60;49.80
34873;DHT22;21084;51.098;14.506;2023-05-10T02:53:58;10.60;50.00
34873;DHT22;21084;51.098;14.506;2023-05-10T02:56:31;10.60;50.30
34873;DHT22;21084;51.098;14.506;2023-05-10T02:59:00;10.60;50.30
34873;DHT22;21084;51.098;14.506;2023-05-10T03:01:28;10.60;50.30
34873;DHT22;21084;51.098;14.506;2023-05-10T03:03:57;10.50;50.30
34873;DHT22;21084;51.098;14.506;2023-05-10T03:06:25;10.40;50.70
34873;DHT22;21084;51.098;14.506;2023-05-10T03:08:53;10.30;51.20
34873;DHT22;21084;51.098;14.506;2023-05-10T03:11:28;10.30;51.20
34873;DHT22;21084;51.098;14.506;2023-05-10T03:14:04;10.40;51.10
34873;DHT22;21084;51.098;14.506;2023-05-10T03:16:38;10.40;51.20
34873;DHT22;21084;51.098;14.506;2023-05-10T03:19:12;10.50;51.10
34873;DHT22;21084;51.098;14.506;2023-05-10T03:21:44;10.40;51.30
34873;DHT22;21084;51.098;14.506;2023-05-10T03:24:15;10.40;51.20
34873;DHT22;21084;51.098;14.506;2023-05-10T03:26:44;10.40;51.30
34873;DHT22;21084;51.098;14.506;2023-05-10T03:29:14;10.40;51.60
34873;DHT22;21084;51.098;14.506;2023-05-10T03:31:43;10.40;51.50
34873;DHT22;21084;51.098;14.506;2023-05-10T03:34:11;10.40;51.50
34873;DHT22;21084;51.098;14.506;2023-05-10T03:36:39;10.60;51.50
34873;DHT22;21084;51.098;14.506;2023-05-10T03:39:08;10.50;51.40
34873;DHT22;21084;51.098;14.506;2023-05-10T03:41:37;10.60;51.40
34873;DHT22;21084;51.098;14.506;2023-05-10T03:44:05;10.50;51.70
34873;DHT22;21084;51.098;14.506;2023-05-10T03:46:35;10.50;51.80
34873;DHT22;21084;51.098;14.506;2023-05-10T03:49:03;10.60;51.70
34873;DHT22;21084;51.098;14.506;2023-05-10T03:51:31;10.60;51.60
34873;DHT22;21084;51.098;14.506;2023-05-10T03:53:59;10.60;51.80
34873;DHT22;21084;51.098;14.506;2023-05-10T03:56:28;10.50;52.00
34873;DHT22;21084;51.098;14.506;2023-05-10T03:58:56;10.50;52.10
34873;DHT22;21084;51.098;14.506;2023-05-10T04:01:25;10.50;52.30
34873;DHT22;21084;51.098;14.506;2023-05-10T04:03:54;10.50;53.00
34873;DHT22;21084;51.098;14.506;2023-05-10T04:06:22;10.50;52.50
34873;DHT22;21084;51.098;14.506;2023-05-10T04:08:51;10.40;52.60
34873;DHT22;21084;51.098;14.506;2023-05-10T04:11:19;10.50;52.60
34873;DHT22;21084;51.098;14.506;2023-05-10T04:13:48;10.60;52.70
34873;DHT22;21084;51.098;14.506;2023-05-10T04:16:16;10.70;52.50
34873;DHT22;21084;51.098;14.506;2023-05-10T04:18:45;10.70;52.40
34873;DHT22;21084;51.098;14.506;2023-05-10T04:21:14;10.80;52.30
34873;DHT22;21084;51.098;14.506;2023-05-10T04:23:43;10.90;52.30
34873;DHT22;21084;51.098;14.506;2023-05-10T04:26:11;11.00;51.80
34873;DHT22;21084;51.098;14.506;2023-05-10T04:28:39;11.10;51.70
34873;DHT22;21084;51.098;14.506;2023-05-10T04:31:08;11.30;51.30
34873;DHT22;21084;51.098;14.506;2023-05-10T04:33:36;11.40;51.30
34873;DHT22;21084;51.098;14.506;2023-05-10T04:36:05;11.50;50.90
34873;DHT22;21084;51.098;14.506;2023-05-10T04:38:34;11.60;50.60
34873;DHT22;21084;51.098;14.506;2023-05-10T04:41:03;11.60;50.40
34873;DHT22;21084;51.098;14.506;2023-05-10T04:43:31;11.70;50.30
34873;DHT22;21084;51.098;14.506;2023-05-10T04:46:00;11.80;50.20
34873;DHT22;21084;51.098;14.506;2023-05-10T04:48:28;11.90;50.20
34873;DHT22;21084;51.098;14.506;2023-05-10T04:50:56;12.00;49.90
34873;DHT22;21084;51.098;14.506;2023-05-10T04:53:25;12.10;49.90
34873;DHT22;21084;51.098;14.506;2023-05-10T04:55:54;12.20;49.70
34873;DHT22;21084;51.098;14.506;2023-05-10T04:58:22;12.30;49.10
34873;DHT22;21084;51.098;14.506;2023-05-10T05:00:51;12.50;49.40
34873;DHT22;21084;51.098;14.506;2023-05-10T05:03:19;12.60;49.20
34873;DHT22;21084;51.098;14.506;2023-05-10T05:05:47;12.70;48.80
34873;DHT22;21084;51.098;14.506;2023-05-10T05:08:15;12.80;48.50
34873;DHT22;21084;51.098;14.506;2023-05-10T05:10:43;12.80;48.50
34873;DHT22;21084;51.098;14.506;2023-05-10T05:13:13;12.70;48.70
34873;DHT22;21084;51.098;14.506;2023-05-10T05:15:41;12.70;49.00
34873;DHT22;21084;51.098;14.506;2023-05-10T05:18:09;12.70;49.10
34873;DHT22;21084;51.098;14.506;2023-05-10T05:20:38;12.70;48.70
34873;DHT22;21084;51.098;14.506;2023-05-10T05:23:06;12.80;49.30
34873;DHT22;21084;51.098;14.506;2023-05-10T05:25:34;12.70;49.10
34873;DHT22;21084;51.098;14.506;2023-05-10T05:28:03;12.70;48.70
34873;DHT22;21084;51.098;14.506;2023-05-10T05:30:32;12.70;48.90
34873;DHT22;21084;51.098;14.506;2023-05-10T05:33:01;12.90;49.00
34873;DHT22;21084;51.098;14.506;2023-05-10T05:35:29;13.10;48.60
34873;DHT22;21084;51.098;14.506;2023-05-10T05:37:57;13.40;48.90
34873;DHT22;21084;51.098;14.506;2023-05-10T05:40:25;13.70;48.10
34873;DHT22;21084;51.098;14.506;2023-05-10T05:42:54;14.00;47.40
34873;DHT22;21084;51.098;14.506;2023-05-10T05:45:22;14.30;47.10
34873;DHT22;21084;51.098;14.506;2023-05-10T05:47:52;14.40;46.00
34873;DHT22;21084;51.098;14.506;2023-05-10T05:50:20;14.70;46.20
34873;DHT22;21084;51.098;14.506;2023-05-10T05:52:48;14.90;45.40
34873;DHT22;21084;51.098;14.506;2023-05-10T05:55:16;14.90;45.20
34873;DHT22;21084;51.098;14.506;2023-05-10T05:57:45;15.10;44.90
34873;DHT22;21084;51.098;14.506;2023-05-10T06:00:13;15.40;44.80
34873;DHT22;21084;51.098;14.506;2023-05-10T06:02:42;15.60;44.70
34873;DHT22;21084;51.098;14.506;2023-05-10T06:05:12;15.80;44.30
34873;DHT22;21084;51.098;14.506;2023-05-10T06:07:41;15.80;43.80
34873;DHT22;21084;51.098;14.506;2023-05-10T06:10:09;15.80;43.60
34873;DHT22;21084;51.098;14.506;2023-05-10T06:12:38;16.00;43.70
34873;DHT22;21084;51.098;14.506;2023-05-10T06:15:06;16.00;44.20
34873;DHT22;21084;51.098;14.506;2023-05-10T06:17:35;16.00;44.30
34873;DHT22;21084;51.098;14.506;2023-05-10T06:20:03;16.20;44.50
34873;DHT22;21084;51.098;14.506;2023-05-10T06:22:33;16.30;43.50
34873;DHT22;21084;51.098;14.506;2023-05-10T06:25:01;16.30;43.20
34873;DHT22;21084;51.098;14.506;2023-05-10T06:27:29;16.40;42.70
34873;DHT22;21084;51.098;14.506;2023-05-10T06:29:58;16.00;43.40
34873;DHT22;21084;51.098;14.506;2023-05-10T06:32:39;16.10;44.40
34873;DHT22;21084;51.098;14.506;2023-05-10T06:35:07;16.60;43.10
34873;DHT22;21084;51.098;14.506;2023-05-10T06:37:37;16.20;42.40
34873;DHT22;21084;51.098;14.506;2023-05-10T06:40:06;16.70;43.00
34873;DHT22;21084;51.098;14.506;2023-05-10T06:42:34;16.90;42.20
34873;DHT22;21084;51.098;14.506;2023-05-10T06:45:02;17.10;43.20
34873;DHT22;21084;51.098;14.506;2023-05-10T06:47:32;17.00;41.80
34873;DHT22;21084;51.098;14.506;2023-05-10T06:50:05;16.80;42.30
34873;DHT22;21084;51.098;14.506;2023-05-10T06:52:33;17.10;42.70
34873;DHT22;21084;51.098;14.506;2023-05-10T06:55:03;17.10;41.80
34873;DHT22;21084;51.098;14.506;2023-05-10T06:57:31;17.20;41.80
34873;DHT22;21084;51.098;14.506;2023-05-10T07:00:00;17.50;42.10
34873;DHT22;21084;51.098;14.506;2023-05-10T07:02:28;17.80;40.90
34873;DHT22;21084;51.098;14.506;2023-05-10T07:04:56;18.00;40.30
34873;DHT22;21084;51.098;14.506;2023-05-10T07:07:28;18.20;40.30
34873;DHT22;21084;51.098;14.506;2023-05-10T07:09:57;18.40;40.00
34873;DHT22;21084;51.098;14.506;2023-05-10T07:12:27;18.60;40.00
34873;DHT22;21084;51.098;14.506;2023-05-10T07:14:55;17.90;39.40
34873;DHT22;21084;51.098;14.506;2023-05-10T07:17:24;17.40;41.40
34873;DHT22;21084;51.098;14.506;2023-05-10T07:19:52;18.20;40.70
34873;DHT22;21084;51.098;14.506;2023-05-10T07:22:20;18.80;40.60
34873;DHT22;21084;51.098;14.506;2023-05-10T07:24:48;19.20;38.90
34873;DHT22;21084;51.098;14.506;2023-05-10T07:27:17;18.80;39.10
34873;DHT22;21084;51.098;14.506;2023-05-10T07:29:46;19.10;40.40
34873;DHT22;21084;51.098;14.506;2023-05-10T07:32:14;19.50;39.60
34873;DHT22;21084;51.098;14.506;2023-05-10T07:34:42;19.90;39.00
34873;DHT22;21084;51.098;14.506;2023-05-10T07:37:11;20.50;37.60
34873;DHT22;21084;51.098;14.506;2023-05-10T07:39:39;20.70;37.00
34873;DHT22;21084;51.098;14.506;2023-05-10T07:42:07;21.00;36.90
34873;DHT22;21084;51.098;14.506;2023-05-10T07:44:35;20.80;35.50
34873;DHT22;21084;51.098;14.506;2023-05-10T07:47:05;20.30;37.00
34873;DHT22;21084;51.098;14.506;2023-05-10T07:49:33;19.60;38.50
34873;DHT22;21084;51.098;14.506;2023-05-10T07:52:02;19.70;38.20
34873;DHT22;21084;51.098;14.506;2023-05-10T07:54:31;19.40;39.90
34873;DHT22;21084;51.098;14.506;2023-05-10T07:57:00;19.80;38.70
34873;DHT22;21084;51.098;14.506;2023-05-10T07:59:28;19.20;38.10
34873;DHT22;21084;51.098;14.506;2023-05-10T08:01:57;19.00;38.70
34873;DHT22;21084;51.098;14.506;2023-05-10T08:04:26;19.80;39.60
34873;DHT22;21084;51.098;14.506;2023-05-10T08:06:55;19.90;38.40
34873;DHT22;21084;51.098;14.506;2023-05-10T08:09:23;20.60;38.40
34873;DHT22;21084;51.098;14.506;2023-05-10T08:11:51;20.90;37.90
34873;DHT22;21084;51.098;14.506;2023-05-10T08:14:19;21.10;36.40
34873;DHT22;21084;51.098;14.506;2023-05-10T08:16:47;21.40;36.70
34873;DHT22;21084;51.098;14.506;2023-05-10T08:19:15;22.20;35.60
34873;DHT22;21084;51.098;14.506;2023-05-10T08:21:47;22.60;36.80
34873;DHT22;21084;51.098;14.506;2023-05-10T08:24:15;23.20;34.90
34873;DHT22;21084;51.098;14.506;2023-05-10T08:26:43;23.50;34.30
34873;DHT22;21084;51.098;14.506;2023-05-10T08:29:11;23.30;35.80
34873;DHT22;21084;51.098;14.506;2023-05-10T08:31:39;23.70;33.30
34873;DHT22;21084;51.098;14.506;2023-05-10T08:34:08;23.00;33.80
34873;DHT22;21084;51.098;14.506;2023-05-10T08:36:36;23.30;34.60
34873;DHT22;21084;51.098;14.506;2023-05-10T08:39:06;23.20;33.40
34873;DHT22;21084;51.098;14.506;2023-05-10T08:41:45;23.30;34.00
34873;DHT22;21084;51.098;14.506;2023-05-10T08:44:14;23.60;33.20
34873;DHT22;21084;51.098;14.506;2023-05-10T08:46:44;23.40;32.50
34873;DHT22;21084;51.098;14.506;2023-05-10T08:49:15;24.00;32.60
34873;DHT22;21084;51.098;14.506;2023-05-10T08:51:47;24.10;32.50
34873;DHT22;21084;51.098;14.506;2023-05-10T08:54:18;24.20;32.10
34873;DHT22;21084;51.098;14.506;2023-05-10T08:56:46;23.40;32.10
34873;DHT22;21084;51.098;14.506;2023-05-10T08:59:15;22.90;33.50
34873;DHT22;21084;51.098;14.506;2023-05-10T09:01:44;23.50;32.80
34873;DHT22;21084;51.098;14.506;2023-05-10T09:04:12;24.20;33.50
34873;DHT22;21084;51.098;14.506;2023-05-10T09:06:41;24.60;32.60
34873;DHT22;21084;51.098;14.506;2023-05-10T09:09:09;24.80;32.00
34873;DHT22;21084;51.098;14.506;2023-05-10T09:11:39;25.20;30.20
34873;DHT22;21084;51.098;14.506;2023-05-10T09:14:07;25.20;31.10
34873;DHT22;21084;51.098;14.506;2023-05-10T09:16:36;25.20;30.60
34873;DHT22;21084;51.098;14.506;2023-05-10T09:19:04;24.70;32.30
34873;DHT22;21084;51.098;14.506;2023-05-10T09:21:34;25.40;32.10
34873;DHT22;21084;51.098;14.506;2023-05-10T09:24:03;25.30;31.70
34873;DHT22;21084;51.098;14.506;2023-05-10T09:26:32;25.60;30.80
34873;DHT22;21084;51.098;14.506;2023-05-10T09:29:03;25.80;30.80
34873;DHT22;21084;51.098;14.506;2023-05-10T09:31:46;24.60;30.90
34873;DHT22;21084;51.098;14.506;2023-05-10T09:34:17;24.30;32.10
34873;DHT22;21084;51.098;14.506;2023-05-10T09:36:53;24.70;30.90
34873;DHT22;21084;51.098;14.506;2023-05-10T09:39:25;24.20;32.30
34873;DHT22;21084;51.098;14.506;2023-05-10T09:41:57;24.20;32.10
34873;DHT22;21084;51.098;14.506;2023-05-10T09:44:27;22.30;33.50
34873;DHT22;21084;51.098;14.506;2023-05-10T09:46:55;23.20;35.10
34873;DHT22;21084;51.098;14.506;2023-05-10T09:49:23;23.90;33.60
34873;DHT22;21084;51.098;14.506;2023-05-10T09:52:02;23.90;32.70
34873;DHT22;21084;51.098;14.506;2023-05-10T09:54:30;24.40;32.60
34873;DHT22;21084;51.098;14.506;2023-05-10T09:56:59;24.50;33.10
34873;DHT22;21084;51.098;14.506;2023-05-10T09:59:28;25.10;31.40
34873;DHT22;21084;51.098;14.506;2023-05-10T10:01:57;25.50;31.60
34873;DHT22;21084;51.098;14.506;2023-05-10T10:04:25;24.90;32.20
34873;DHT22;21084;51.098;14.506;2023-05-10T10:07:01;26.10;31.50
34873;DHT22;21084;51.098;14.506;2023-05-10T10:09:29;26.90;29.30
34873;DHT22;21084;51.098;14.506;2023-05-10T10:11:58;27.20;29.10
34873;DHT22;21084;51.098;14.506;2023-05-10T10:14:27;27.50;28.30
34873;DHT22;21084;51.098;14.506;2023-05-10T10:16:56;27.00;28.90
34873;DHT22;21084;51.098;14.506;2023-05-10T10:19:34;27.30;29.90
34873;DHT22;21084;51.098;14.506;2023-05-10T10:22:04;27.80;29.00
34873;DHT22;21084;51.098;14.506;2023-05-10T10:24:32;27.90;28.20
34873;DHT22;21084;51.098;14.506;2023-05-10T10:27:03;26.70;29.40
34873;DHT22;21084;51.098;14.506;2023-05-10T10:29:34;27.20;29.30
34873;DHT22;21084;51.098;14.506;2023-05-10T10:32:08;27.60;29.10
34873;DHT22;21084;51.098;14.506;2023-05-10T10:34:38;27.70;28.30
34873;DHT22;21084;51.098;14.506;2023-05-10T10:37:07;28.60;28.40
34873;DHT22;21084;51.098;14.506;2023-05-10T10:39:35;28.60;27.80
34873;DHT22;21084;51.098;14.506;2023-05-10T10:42:03;28.10;27.90
34873;DHT22;21084;51.098;14.506;2023-05-10T10:44:38;28.60;27.50
34873;DHT22;21084;51.098;14.506;2023-05-10T10:47:21;27.40;27.90
34873;DHT22;21084;51.098;14.506;2023-05-10T10:50:02;28.50;28.60
34873;DHT22;21084;51.098;14.506;2023-05-10T10:52:31;28.80;27.30
34873;DHT22;21084;51.098;14.506;2023-05-10T10:55:02;28.90;27.50
34873;DHT22;21084;51.098;14.506;2023-05-10T10:57:31;29.20;27.00
34873;DHT22;21084;51.098;14.506;2023-05-10T11:00:18;28.70;27.60
34873;DHT22;21084;51.098;14.506;2023-05-10T11:02:48;28.60;27.60
34873;DHT22;21084;51.098;14.506;2023-05-10T11:05:23;28.30;27.60
34873;DHT22;21084;51.098;14.506;2023-05-10T11:07:52;28.50;27.80
34873;DHT22;21084;51.098;14.506;2023-05-10T11:10:20;27.90;28.10
34873;DHT22;21084;51.098;14.506;2023-05-10T11:12:52;26.80;29.40
34873;DHT22;21084;51.098;14.506;2023-05-10T11:15:28;27.20;29.10
34873;DHT22;21084;51.098;14.506;2023-05-10T11:17:57;28.10;27.60
34873;DHT22;21084;51.098;14.506;2023-05-10T11:20:27;27.70;28.40
34873;DHT22;21084;51.098;14.506;2023-05-10T11:23:10;27.90;27.80
34873;DHT22;21084;51.098;14.506;2023-05-10T11:25:40;29.00;27.30
34873;DHT22;21084;51.098;14.506;2023-05-10T11:28:09;28.50;26.90
34873;DHT22;21084;51.098;14.506;2023-05-10T11:30:37;27.00;28.80
34873;DHT22;21084;51.098;14.506;2023-05-10T11:33:07;28.20;29.10
34873;DHT22;21084;51.098;14.506;2023-05-10T11:35:39;28.70;29.00
34873;DHT22;21084;51.098;14.506;2023-05-10T11:38:10;28.30;28.20
34873;DHT22;21084;51.098;14.506;2023-05-10T11:40:38;28.80;26.90
34873;DHT22;21084;51.098;14.506;2023-05-10T11:43:08;29.70;27.10
34873;DHT22;21084;51.098;14.506;2023-05-10T11:45:36;30.20;26.70
34873;DHT22;21084;51.098;14.506;2023-05-10T11:48:05;30.90;26.30
34873;DHT22;21084;51.098;14.506;2023-05-10T11:50:34;31.10;25.10
34873;DHT22;21084;51.098;14.506;2023-05-10T11:53:03;30.50;25.70
34873;DHT22;21084;51.098;14.506;2023-05-10T11:55:33;29.80;25.20
34873;DHT22;21084;51.098;14.506;2023-05-10T11:58:01;29.60;26.40
34873;DHT22;21084;51.098;14.506;2023-05-10T12:00:30;30.10;26.20
34873;DHT22;21084;51.098;14.506;2023-05-10T12:03:00;29.40;26.30
34873;DHT22;21084;51.098;14.506;2023-05-10T12:05:31;29.50;26.50
34873;DHT22;21084;51.098;14.506;2023-05-10T12:08:13;29.30;26.80
34873;DHT22;21084;51.098;14.506;2023-05-10T12:10:41;29.20;26.90
34873;DHT22;21084;51.098;14.506;2023-05-10T12:13:13;30.10;27.20
34873;DHT22;21084;51.098;14.506;2023-05-10T12:15:42;30.70;25.80
34873;DHT22;21084;51.098;14.506;2023-05-10T12:18:10;30.70;25.60
34873;DHT22;21084;51.098;14.506;2023-05-10T12:20:39;30.10;26.10
34873;DHT22;21084;51.098;14.506;2023-05-10T12:23:08;29.70;26.00
34873;DHT22;21084;51.098;14.506;2023-05-10T12:25:38;30.20;27.10
34873;DHT22;21084;51.098;14.506;2023-05-10T12:28:08;31.00;26.30
34873;DHT22;21084;51.098;14.506;2023-05-10T12:30:37;30.70;25.80
34873;DHT22;21084;51.098;14.506;2023-05-10T12:33:07;29.50;25.90
34873;DHT22;21084;51.098;14.506;2023-05-10T12:35:43;29.90;26.40
34873;DHT22;21084;51.098;14.506;2023-05-10T12:38:24;30.60;25.00
34873;DHT22;21084;51.098;14.506;2023-05-10T12:40:54;31.50;24.50
34873;DHT22;21084;51.098;14.506;2023-05-10T12:43:22;31.60;24.30
34873;DHT22;21084;51.098;14.506;2023-05-10T12:45:51;32.10;25.60
34873;DHT22;21084;51.098;14.506;2023-05-10T12:48:20;33.00;25.30
34873;DHT22;21084;51.098;14.506;2023-05-10T12:50:48;33.40;23.60
34873;DHT22;21084;51.098;14.506;2023-05-10T12:53:16;31.50;23.60
34873;DHT22;21084;51.098;14.506;2023-05-10T12:55:45;30.80;24.60
34873;DHT22;21084;51.098;14.506;2023-05-10T12:58:14;30.10;25.30
34873;DHT22;21084;51.098;14.506;2023-05-10T13:01:01;30.10;25.50
34873;DHT22;21084;51.098;14.506;2023-05-10T13:03:30;29.30;26.20
34873;DHT22;21084;51.098;14.506;2023-05-10T13:05:58;28.20;27.10
34873;DHT22;21084;51.098;14.506;2023-05-10T13:08:26;28.30;26.50
34873;DHT22;21084;51.098;14.506;2023-05-10T13:10:56;28.50;26.20
34873;DHT22;21084;51.098;14.506;2023-05-10T13:13:26;28.60;27.20
34873;DHT22;21084;51.098;14.506;2023-05-10T13:15:54;28.70;26.20
34873;DHT22;21084;51.098;14.506;2023-05-10T13:18:22;28.00;27.60
34873;DHT22;21084;51.098;14.506;2023-05-10T13:20:51;28.70;26.90
34873;DHT22;21084;51.098;14.506;2023-05-10T13:23:19;29.00;27.50
34873;DHT22;21084;51.098;14.506;2023-05-10T13:25:47;29.30;26.90
34873;DHT22;21084;51.098;14.506;2023-05-10T13:28:16;29.70;27.80
34873;DHT22;21084;51.098;14.506;2023-05-10T13:30:45;29.00;26.30
34873;DHT22;21084;51.098;14.506;2023-05-10T13:33:13;27.50;27.50
34873;DHT22;21084;51.098;14.506;2023-05-10T13:35:41;27.80;27.20
34873;DHT22;21084;51.098;14.506;2023-05-10T13:38:09;27.80;28.50
34873;DHT22;21084;51.098;14.506;2023-05-10T13:40:38;27.30;27.30
34873;DHT22;21084;51.098;14.506;2023-05-10T13:43:06;28.20;29.20
34873;DHT22;21084;51.098;14.506;2023-05-10T13:45:34;27.10;29.50
34873;DHT22;21084;51.098;14.506;2023-05-10T13:48:04;27.80;27.70
34873;DHT22;21084;51.098;14.506;2023-05-10T13:50:32;27.50;28.60
34873;DHT22;21084;51.098;14.506;2023-05-10T13:53:01;27.60;27.50
34873;DHT22;21084;51.098;14.506;2023-05-10T13:55:29;27.60;28.00
34873;DHT22;21084;51.098;14.506;2023-05-10T13:57:57;26.50;28.00
34873;DHT22;21084;51.098;14.506;2023-05-10T14:00:25;26.60;29.30
34873;DHT22;21084;51.098;14.506;2023-05-10T14:02:54;27.50;28.20
34873;DHT22;21084;51.098;14.506;2023-05-10T14:05:24;28.10;28.10
34873;DHT22;21084;51.098;14.506;2023-05-10T14:07:52;28.30;26.60
34873;DHT22;21084;51.098;14.506;2023-05-10T14:10:21;29.00;26.70
34873;DHT22;21084;51.098;14.506;2023-05-10T14:12:49;29.40;26.40
34873;DHT22;21084;51.098;14.506;2023-05-10T14:15:17;29.20;26.50
34873;DHT22;21084;51.098;14.506;2023-05-10T14:17:45;28.60;27.30
34873;DHT22;21084;51.098;14.506;2023-05-10T14:20:14;28.30;27.30
34873;DHT22;21084;51.098;14.506;2023-05-10T14:22:43;28.00;28.10
34873;DHT22;21084;51.098;14.506;2023-05-10T14:25:11;27.50;28.20
34873;DHT22;21084;51.098;14.506;2023-05-10T14:27:40;26.90;28.50
34873;DHT22;21084;51.098;14.506;2023-05-10T14:30:08;27.10;28.20
34873;DHT22;21084;51.098;14.506;2023-05-10T14:32:37;26.90;28.00
34873;DHT22;21084;51.098;14.506;2023-05-10T14:35:05;26.80;28.50
34873;DHT22;21084;51.098;14.506;2023-05-10T14:37:36;27.40;28.10
34873;DHT22;21084;51.098;14.506;2023-05-10T14:40:06;27.40;28.30
34873;DHT22;21084;51.098;14.506;2023-05-10T14:42:36;27.30;28.20
34873;DHT22;21084;51.098;14.506;2023-05-10T14:45:04;26.00;28.90
34873;DHT22;21084;51.098;14.506;2023-05-10T14:47:32;24.30;31.40
34873;DHT22;21084;51.098;14.506;2023-05-10T14:50:01;24.00;32.30
34873;DHT22;21084;51.098;14.506;2023-05-10T14:52:29;24.10;32.00
34873;DHT22;21084;51.098;14.506;2023-05-10T14:55:00;24.40;32.20
34873;DHT22;21084;51.098;14.506;2023-05-10T14:57:29;24.50;31.40
34873;DHT22;21084;51.098;14.506;2023-05-10T14:59:58;24.80;32.40
34873;DHT22;21084;51.098;14.506;2023-05-10T15:02:26;25.20;30.60
34873;DHT22;21084;51.098;14.506;2023-05-10T15:04:55;25.20;30.60
34873;DHT22;21084;51.098;14.506;2023-05-10T15:07:48;25.20;30.90
34873;DHT22;21084;51.098;14.506;2023-05-10T15:10:17;24.40;32.80
34873;DHT22;21084;51.098;14.506;2023-05-10T15:12:46;24.30;31.60
34873;DHT22;21084;51.098;14.506;2023-05-10T15:15:15;24.20;32.10
34873;DHT22;21084;51.098;14.506;2023-05-10T15:17:43;23.30;34.00
34873;DHT22;21084;51.098;14.506;2023-05-10T15:20:12;22.90;34.90
34873;DHT22;21084;51.098;14.506;2023-05-10T15:22:40;22.80;34.40
34873;DHT22;21084;51.098;14.506;2023-05-10T15:25:09;22.20;34.30
34873;DHT22;21084;51.098;14.506;2023-05-10T15:27:37;22.10;35.50
34873;DHT22;21084;51.098;14.506;2023-05-10T15:30:07;22.30;34.80
34873;DHT22;21084;51.098;14.506;2023-05-10T15:32:35;22.70;36.10
34873;DHT22;21084;51.098;14.506;2023-05-10T15:35:04;22.10;35.60